Terminal Aerodrome Forecast
Issued by NWS

Home | Current Version | Previous Version | Text Only | Print | Product List | Glossary On
Versions: 1 2 3 4 5 6 7 8 9 10 11 12 13
000
FTUS43 KJKL 101700
TAFSME
TAF
KSME 101739Z 1018/1118 VRB04KT P6SM VCSH SCT050
     FM102300 00000KT P6SM SKC
     FM111100 00000KT 4SM BR SKC
     FM111230 VRB04KT P6SM SKC=

USA.gov is the U.S. government's official web portal to all federal, state and local government web resources and services.